createdAt,value
2023-02-09T00:01:16.334Z,29.20
2023-02-09T00:03:44.046Z,30.35
2023-02-09T00:06:14.615Z,30.23
2023-02-09T00:08:41.992Z,32.08
2023-02-09T00:11:10.809Z,27.73
2023-02-09T00:13:38.388Z,29.75
2023-02-09T00:16:05.531Z,28.83
2023-02-09T00:18:33.864Z,30.00
2023-02-09T00:21:04.385Z,29.98
2023-02-09T00:23:32.325Z,29.05
2023-02-09T00:26:04.797Z,31.27
2023-02-09T00:28:31.916Z,29.50
2023-02-09T00:30:59.048Z,28.23
2023-02-09T00:33:25.982Z,29.80
2023-02-09T00:35:52.769Z,30.75
2023-02-09T00:38:21.392Z,31.05
2023-02-09T00:40:48.913Z,27.60
2023-02-09T00:43:15.690Z,28.27
2023-02-09T00:45:42.489Z,31.40
2023-02-09T00:48:09.327Z,28.67
2023-02-09T00:50:36.116Z,31.80
2023-02-09T00:53:02.918Z,29.27
2023-02-09T00:55:29.712Z,29.17
2023-02-09T00:57:56.540Z,32.13
2023-02-09T01:00:23.523Z,30.23
2023-02-09T01:02:50.406Z,29.50
2023-02-09T01:05:17.474Z,33.17
2023-02-09T01:07:44.643Z,30.63
2023-02-09T01:10:11.523Z,30.40
2023-02-09T01:12:40.846Z,30.80
2023-02-09T01:15:09.336Z,29.58
2023-02-09T01:17:36.651Z,32.03
2023-02-09T01:20:05.489Z,30.20
2023-02-09T01:22:33.898Z,33.42
2023-02-09T01:25:00.734Z,30.60
2023-02-09T01:27:27.532Z,31.33
2023-02-09T01:29:54.339Z,29.15
2023-02-09T01:32:22.648Z,30.58
2023-02-09T01:34:54.010Z,30.25
2023-02-09T01:37:21.771Z,33.75
2023-02-09T01:39:48.692Z,30.13
2023-02-09T01:42:18.869Z,32.60
2023-02-09T01:44:45.612Z,31.90
2023-02-09T01:47:21.348Z,32.55
2023-02-09T01:49:50.033Z,30.38
2023-02-09T01:52:21.090Z,30.92
2023-02-09T01:55:10.176Z,32.15
2023-02-09T01:57:40.981Z,35.15
2023-02-09T02:00:12.133Z,33.92
2023-02-09T02:02:44.843Z,32.30
2023-02-09T02:05:11.918Z,32.00
2023-02-09T02:07:47.442Z,34.33
2023-02-09T02:10:14.619Z,33.70
2023-02-09T02:12:42.088Z,34.13
2023-02-09T02:15:11.805Z,31.27
2023-02-09T02:17:47.772Z,29.27
2023-02-09T02:20:34.843Z,35.05
2023-02-09T02:23:08.678Z,34.72
2023-02-09T02:25:51.184Z,32.13
2023-02-09T02:28:41.747Z,31.65
2023-02-09T02:34:15.932Z,31.00
2023-02-09T02:37:01.455Z,31.70
2023-02-09T02:39:45.829Z,32.75
2023-02-09T02:42:48.544Z,34.38
2023-02-09T02:45:40.123Z,33.15
2023-02-09T02:48:18.916Z,31.30
2023-02-09T02:50:56.219Z,30.98
2023-02-09T02:53:28.056Z,27.73
2023-02-09T02:55:59.800Z,29.15
2023-02-09T02:58:29.368Z,30.63
2023-02-09T03:01:00.312Z,28.75
2023-02-09T03:03:32.175Z,28.90
2023-02-09T03:06:02.918Z,28.73
2023-02-09T03:08:29.880Z,25.88
2023-02-09T03:10:57.058Z,28.20
2023-02-09T03:13:44.369Z,25.20
2023-02-09T03:16:42.923Z,26.13
2023-02-09T03:20:07.018Z,24.85
2023-02-09T03:22:44.905Z,23.38
2023-02-09T03:25:17.674Z,22.35
2023-02-09T03:27:50.322Z,22.55
2023-02-09T03:30:18.664Z,25.70
2023-02-09T03:32:47.214Z,24.77
2023-02-09T03:35:19.400Z,23.35
2023-02-09T03:37:46.293Z,24.50
2023-02-09T03:40:13.462Z,22.67
2023-02-09T03:42:40.289Z,22.33
2023-02-09T03:45:08.069Z,23.42
2023-02-09T03:47:35.208Z,22.13
2023-02-09T03:50:02.075Z,21.52
2023-02-09T03:52:30.968Z,24.00
2023-02-09T03:54:57.744Z,23.13
2023-02-09T03:57:24.719Z,21.17
2023-02-09T03:59:51.491Z,21.80
2023-02-09T04:02:18.329Z,19.58
2023-02-09T04:04:45.333Z,21.58
2023-02-09T04:07:12.492Z,19.45
2023-02-09T04:09:39.312Z,19.45
2023-02-09T04:12:06.421Z,18.33
2023-02-09T04:14:33.211Z,16.23
2023-02-09T04:17:00.005Z,18.02
2023-02-09T04:19:26.846Z,16.40
2023-02-09T04:21:53.644Z,18.48
2023-02-09T04:24:27.827Z,17.85
2023-02-09T04:26:54.626Z,16.52
2023-02-09T04:29:21.448Z,16.13
2023-02-09T04:31:48.324Z,14.88
2023-02-09T04:34:15.147Z,18.52
2023-02-09T04:36:42.010Z,16.48
2023-02-09T04:39:08.769Z,15.27
2023-02-09T04:41:35.672Z,15.55
2023-02-09T04:44:02.482Z,18.27
2023-02-09T04:46:29.336Z,15.98
2023-02-09T04:48:56.120Z,15.70
2023-02-09T04:51:22.961Z,16.70
2023-02-09T04:53:49.768Z,18.17
2023-02-09T04:56:17.344Z,16.98
2023-02-09T04:59:02.937Z,15.88
2023-02-09T05:01:30.634Z,17.98
2023-02-09T05:03:57.568Z,18.40
2023-02-09T05:06:24.459Z,16.90
2023-02-09T05:08:51.389Z,17.92
2023-02-09T05:11:18.476Z,19.45
2023-02-09T05:13:46.920Z,15.32
2023-02-09T05:16:17.443Z,17.23
2023-02-09T05:18:44.987Z,16.63
2023-02-09T05:21:11.903Z,17.90
2023-02-09T05:23:38.689Z,16.75
2023-02-09T05:26:05.709Z,17.33
2023-02-09T05:28:32.651Z,16.80
2023-02-09T05:30:59.495Z,17.60
2023-02-09T05:33:26.462Z,17.35
2023-02-09T05:35:56.009Z,18.25
2023-02-09T05:38:22.975Z,18.55
2023-02-09T05:40:50.251Z,17.17
2023-02-09T05:43:17.866Z,18.85
2023-02-09T05:45:46.023Z,18.65
2023-02-09T05:48:12.936Z,19.35
2023-02-09T05:50:39.818Z,18.10
2023-02-09T05:53:08.112Z,18.75
2023-02-09T05:55:34.915Z,18.98
2023-02-09T05:58:01.704Z,18.48
2023-02-09T06:00:29.859Z,18.00
2023-02-09T06:02:57.159Z,19.75
2023-02-09T06:05:24.395Z,16.67
2023-02-09T06:07:51.390Z,17.40
2023-02-09T06:10:19.120Z,18.30
2023-02-09T06:12:46.048Z,17.30
2023-02-09T06:15:13.070Z,18.98
2023-02-09T06:17:39.878Z,16.83
2023-02-09T06:20:07.131Z,19.30
2023-02-09T06:22:34.148Z,16.25
2023-02-09T06:25:01.068Z,17.88
2023-02-09T06:27:27.970Z,17.10
2023-02-09T06:29:54.765Z,15.70
2023-02-09T06:32:21.559Z,17.33
2023-02-09T06:34:48.322Z,16.27
2023-02-09T06:37:15.135Z,17.50
2023-02-09T06:39:41.937Z,16.25
2023-02-09T06:42:08.940Z,17.08
2023-02-09T06:44:35.710Z,17.70
2023-02-09T06:47:02.514Z,15.63
2023-02-09T06:49:29.377Z,16.80
2023-02-09T06:51:56.528Z,15.35
2023-02-09T06:54:23.517Z,16.52
2023-02-09T06:56:50.398Z,15.30
2023-02-09T06:59:17.235Z,13.40
2023-02-09T07:01:44.067Z,13.73
2023-02-09T07:04:10.932Z,14.82
2023-02-09T07:06:37.744Z,16.60
2023-02-09T07:09:04.651Z,16.30
2023-02-09T07:11:31.500Z,14.95
2023-02-09T07:13:58.271Z,15.43
2023-02-09T07:16:25.278Z,16.08
2023-02-09T07:18:52.155Z,14.48
2023-02-09T07:21:21.372Z,15.35
2023-02-09T07:23:48.728Z,14.40
2023-02-09T07:26:17.668Z,14.05
2023-02-09T07:28:44.958Z,14.18
2023-02-09T07:31:13.748Z,16.73
2023-02-09T07:33:40.937Z,13.25
2023-02-09T07:36:11.028Z,13.90
2023-02-09T07:38:38.728Z,15.63
2023-02-09T07:41:07.165Z,15.77
2023-02-09T07:43:34.560Z,14.20
2023-02-09T07:46:03.463Z,13.80
2023-02-09T07:48:30.873Z,15.38
2023-02-09T07:50:58.541Z,13.52
2023-02-09T07:53:26.194Z,14.85
2023-02-09T07:55:53.116Z,15.25
2023-02-09T07:58:21.194Z,14.95
2023-02-09T08:00:50.069Z,14.98
2023-02-09T08:03:20.328Z,14.00
2023-02-09T08:06:24.260Z,14.15
2023-02-09T08:08:53.463Z,13.48
2023-02-09T08:11:47.787Z,15.07
2023-02-09T08:14:22.097Z,13.73
2023-02-09T08:16:51.278Z,15.88
2023-02-09T08:19:23.625Z,14.13
2023-02-09T08:21:51.052Z,14.48
2023-02-09T08:24:20.506Z,14.38
2023-02-09T08:26:47.496Z,12.67
2023-02-09T08:29:14.413Z,15.80
2023-02-09T08:31:41.336Z,15.02
2023-02-09T08:34:08.230Z,14.38
2023-02-09T08:36:37.551Z,15.98
2023-02-09T08:39:05.710Z,15.07
2023-02-09T08:41:33.997Z,14.57
2023-02-09T08:44:00.821Z,13.32
2023-02-09T08:46:27.785Z,16.98
2023-02-09T08:48:54.933Z,13.13
2023-02-09T08:51:21.833Z,14.43
2023-02-09T08:53:52.548Z,15.13
2023-02-09T08:56:21.100Z,15.52
2023-02-09T08:58:48.468Z,16.50
2023-02-09T09:01:15.564Z,13.10
2023-02-09T09:03:42.523Z,14.88
2023-02-09T09:06:12.012Z,14.73
2023-02-09T09:08:40.364Z,13.90
2023-02-09T09:11:10.221Z,15.70
2023-02-09T09:13:37.022Z,14.68
2023-02-09T09:16:05.310Z,16.35
2023-02-09T09:18:32.802Z,14.65
2023-02-09T09:20:59.707Z,14.93
2023-02-09T09:23:26.675Z,15.57
2023-02-09T09:25:53.705Z,15.57
2023-02-09T09:28:20.582Z,15.60
2023-02-09T09:30:47.501Z,16.00
2023-02-09T09:33:14.368Z,14.93
2023-02-09T09:35:41.912Z,14.65
2023-02-09T09:38:08.890Z,14.38
2023-02-09T09:40:40.456Z,17.45
2023-02-09T09:43:34.619Z,13.95
2023-02-09T09:46:02.528Z,13.90
2023-02-09T09:48:44.332Z,15.05
2023-02-09T09:51:39.240Z,13.95
2023-02-09T09:54:17.425Z,13.38
2023-02-09T09:56:44.544Z,13.95
2023-02-09T09:59:17.868Z,14.48
2023-02-09T10:01:45.135Z,14.15
2023-02-09T10:04:14.589Z,13.13
2023-02-09T10:06:46.961Z,14.30
2023-02-09T10:09:29.730Z,15.00
2023-02-09T10:12:09.249Z,13.00
2023-02-09T10:14:36.065Z,14.13
2023-02-09T10:17:02.926Z,15.48
2023-02-09T10:19:30.452Z,12.70
2023-02-09T10:21:57.411Z,13.25
2023-02-09T10:24:32.736Z,13.30
2023-02-09T10:27:45.192Z,12.55
2023-02-09T10:30:28.848Z,14.00
2023-02-09T10:33:00.030Z,14.45
2023-02-09T10:35:32.458Z,14.15
2023-02-09T10:38:04.061Z,14.63
2023-02-09T10:43:01.739Z,13.18
2023-02-09T10:45:47.554Z,12.30
2023-02-09T10:48:14.530Z,13.00
2023-02-09T10:51:12.128Z,15.18
2023-02-09T10:53:42.191Z,15.02
2023-02-09T10:56:21.350Z,14.60
2023-02-09T10:59:03.722Z,15.77
2023-02-09T11:01:43.408Z,14.68
2023-02-09T11:04:16.202Z,14.10
2023-02-09T11:07:05.976Z,16.15
2023-02-09T11:09:44.743Z,14.57
2023-02-09T11:12:12.883Z,15.80
2023-02-09T11:14:42.461Z,15.77
2023-02-09T11:17:37.425Z,15.65
2023-02-09T11:20:52.667Z,14.07
2023-02-09T11:23:49.922Z,16.17
2023-02-09T11:26:36.350Z,16.45
2023-02-09T11:29:17.885Z,17.17
2023-02-09T11:32:11.131Z,16.30
2023-02-09T11:34:40.774Z,15.70
2023-02-09T11:37:25.299Z,16.25
2023-02-09T11:40:11.032Z,16.42
2023-02-09T11:42:44.032Z,15.80
2023-02-09T11:45:33.821Z,16.42
2023-02-09T11:48:04.136Z,17.83
2023-02-09T11:50:37.003Z,18.52
2023-02-09T11:53:14.958Z,18.63
2023-02-09T11:55:53.732Z,15.48
2023-02-09T11:58:32.615Z,16.58
2023-02-09T12:01:15.198Z,19.75
2023-02-09T12:04:08.620Z,17.35
2023-02-09T12:07:04.576Z,17.38
2023-02-09T12:09:43.396Z,18.13
2023-02-09T12:12:37.246Z,16.95
2023-02-09T12:15:39.063Z,16.45
2023-02-09T12:18:19.875Z,15.85
2023-02-09T12:20:51.634Z,16.25
2023-02-09T12:23:34.507Z,18.02
2023-02-09T12:26:16.284Z,16.23
2023-02-09T12:28:53.919Z,16.92
2023-02-09T12:31:25.277Z,17.38
2023-02-09T12:33:57.969Z,16.30
2023-02-09T12:36:29.631Z,17.67
2023-02-09T12:39:24.025Z,18.27
2023-02-09T12:41:51.003Z,17.35
2023-02-09T12:44:18.469Z,18.77
2023-02-09T12:46:47.934Z,17.95
2023-02-09T12:49:14.716Z,18.17
2023-02-09T12:51:50.698Z,18.77
2023-02-09T12:54:42.000Z,17.38
2023-02-09T12:57:18.828Z,17.48
2023-02-09T12:59:51.732Z,19.20
2023-02-09T13:02:37.964Z,18.17
2023-02-09T13:05:09.145Z,17.20
2023-02-09T13:07:59.166Z,16.95
2023-02-09T13:10:41.504Z,17.88
2023-02-09T13:13:11.087Z,16.70
2023-02-09T13:15:51.629Z,20.38
2023-02-09T13:18:35.070Z,17.95
2023-02-09T13:21:32.858Z,17.00
2023-02-09T13:24:04.373Z,16.95
2023-02-09T13:26:33.130Z,17.40
2023-02-09T13:29:19.877Z,18.55
2023-02-09T13:32:15.077Z,18.10
2023-02-09T13:35:06.480Z,18.83
2023-02-09T13:37:46.828Z,17.95
2023-02-09T13:40:19.161Z,20.63
2023-02-09T13:42:55.293Z,16.77
2023-02-09T13:45:24.047Z,20.65
2023-02-09T13:47:51.423Z,17.50
2023-02-09T13:50:23.833Z,18.50
2023-02-09T13:52:51.328Z,19.15
2023-02-09T13:55:26.558Z,17.88
2023-02-09T13:58:03.095Z,19.58
2023-02-09T14:00:44.234Z,19.40
2023-02-09T14:03:24.460Z,18.83
2023-02-09T14:06:02.309Z,18.70
2023-02-09T14:08:31.509Z,18.40
2023-02-09T14:11:15.029Z,16.65
2023-02-09T14:13:48.942Z,19.15
2023-02-09T14:16:18.043Z,20.67
2023-02-09T14:18:56.671Z,20.10
2023-02-09T14:21:44.611Z,19.13
2023-02-09T14:24:24.612Z,19.25
2023-02-09T14:26:59.977Z,17.77
2023-02-09T14:29:30.078Z,18.58
2023-02-09T14:32:32.307Z,23.10
2023-02-09T14:35:15.172Z,19.40
2023-02-09T14:37:43.267Z,20.20
2023-02-09T14:40:10.007Z,21.67
2023-02-09T14:42:54.996Z,20.80
2023-02-09T14:45:38.758Z,23.02
2023-02-09T14:48:36.792Z,20.30
2023-02-09T14:51:17.505Z,20.40
2023-02-09T14:53:44.523Z,22.55
2023-02-09T14:56:23.732Z,20.88
2023-02-09T14:58:50.623Z,24.42
2023-02-09T15:01:17.489Z,20.25
2023-02-09T15:03:44.348Z,21.02
2023-02-09T15:06:13.747Z,21.15
2023-02-09T15:08:41.000Z,21.77
2023-02-09T15:11:42.685Z,22.35
2023-02-09T15:14:11.490Z,21.33
2023-02-09T15:16:38.398Z,20.45
2023-02-09T15:19:13.592Z,21.88
2023-02-09T15:21:40.450Z,22.50
2023-02-09T15:24:07.240Z,23.35
2023-02-09T15:26:36.347Z,19.65
2023-02-09T15:29:09.696Z,22.10
2023-02-09T15:31:36.597Z,22.83
2023-02-09T15:34:04.797Z,22.00
2023-02-09T15:36:32.044Z,21.90
2023-02-09T15:38:58.950Z,21.65
2023-02-09T15:41:44.282Z,23.10
2023-02-09T15:44:36.148Z,26.45
2023-02-09T15:47:22.071Z,23.23
2023-02-09T15:49:49.100Z,25.75
2023-02-09T15:52:17.898Z,21.75
2023-02-09T15:54:45.239Z,21.73
2023-02-09T15:57:13.913Z,24.05
2023-02-09T15:59:41.538Z,22.33
2023-02-09T16:02:16.599Z,19.92
2023-02-09T16:04:43.481Z,22.45
2023-02-09T16:07:26.109Z,23.90
2023-02-09T16:09:53.040Z,22.10
2023-02-09T16:12:19.964Z,24.10
2023-02-09T16:14:46.819Z,22.73
2023-02-09T16:17:13.693Z,22.92
2023-02-09T16:19:40.580Z,22.55
2023-02-09T16:22:07.602Z,22.60
2023-02-09T16:24:44.197Z,22.33
2023-02-09T16:27:30.433Z,22.85
2023-02-09T16:29:58.659Z,21.10
2023-02-09T16:32:26.970Z,25.23
2023-02-09T16:34:55.026Z,22.98
2023-02-09T16:37:29.777Z,21.80
2023-02-09T16:39:58.234Z,21.50
2023-02-09T16:42:25.536Z,22.63
2023-02-09T16:44:53.032Z,23.35
2023-02-09T16:47:26.481Z,22.73
2023-02-09T16:50:05.586Z,25.58
2023-02-09T16:52:32.499Z,25.33
2023-02-09T16:55:01.439Z,22.35
2023-02-09T16:57:28.885Z,24.05
2023-02-09T16:59:55.724Z,23.90
2023-02-09T17:02:42.408Z,23.80
2023-02-09T17:05:22.468Z,23.73
2023-02-09T17:07:55.333Z,24.80
2023-02-09T17:10:27.486Z,24.38
2023-02-09T17:12:54.633Z,27.83
2023-02-09T17:15:31.820Z,23.02
2023-02-09T17:18:03.528Z,25.60
2023-02-09T17:20:37.490Z,27.00
2023-02-09T17:23:05.110Z,26.55
2023-02-09T17:25:32.260Z,27.58
2023-02-09T17:27:59.230Z,24.35
2023-02-09T17:30:26.092Z,24.38
2023-02-09T17:33:00.304Z,25.80
2023-02-09T17:35:53.105Z,23.88
2023-02-09T17:38:23.134Z,25.10
2023-02-09T17:40:51.253Z,24.02
2023-02-09T17:43:18.174Z,23.33
2023-02-09T17:45:49.282Z,24.15
2023-02-09T17:48:17.306Z,22.25
2023-02-09T17:50:45.375Z,23.52
2023-02-09T17:53:19.142Z,23.10
2023-02-09T17:55:46.891Z,24.23
2023-02-09T17:58:14.771Z,21.95
2023-02-09T18:00:43.447Z,22.98
2023-02-09T18:03:14.759Z,25.52
2023-02-09T18:05:41.762Z,22.13
2023-02-09T18:08:09.449Z,22.55
2023-02-09T18:10:36.695Z,22.65
2023-02-09T18:13:03.907Z,23.35
2023-02-09T18:15:35.948Z,22.02
2023-02-09T18:18:04.031Z,22.38
2023-02-09T18:20:33.280Z,20.83
2023-02-09T18:23:02.606Z,22.05
2023-02-09T18:25:34.780Z,19.92
2023-02-09T18:28:02.759Z,21.80
2023-02-09T18:30:32.813Z,22.13
2023-02-09T18:33:01.032Z,21.52
2023-02-09T18:35:37.084Z,20.60
2023-02-09T18:38:06.114Z,24.80
2023-02-09T18:40:33.589Z,24.15
2023-02-09T18:43:02.032Z,23.65
2023-02-09T18:45:30.573Z,23.65
2023-02-09T18:47:57.911Z,22.42
2023-02-09T18:50:28.062Z,22.10
2023-02-09T18:52:58.680Z,23.15
2023-02-09T18:55:30.822Z,24.23
2023-02-09T18:57:59.594Z,22.10
2023-02-09T19:00:27.036Z,19.60
2023-02-09T19:02:57.656Z,22.85
2023-02-09T19:05:28.428Z,18.55
2023-02-09T19:07:56.099Z,19.35
2023-02-09T19:10:23.706Z,20.10
2023-02-09T19:12:50.588Z,20.33
2023-02-09T19:15:18.795Z,19.88
2023-02-09T19:17:46.086Z,18.27
2023-02-09T19:20:19.056Z,17.92
2023-02-09T19:22:47.547Z,19.58
2023-02-09T19:25:14.956Z,19.80
2023-02-09T19:27:42.307Z,18.85
2023-02-09T19:30:14.035Z,19.23
2023-02-09T19:32:41.099Z,20.10
2023-02-09T19:35:08.470Z,19.00
2023-02-09T19:37:37.382Z,20.50
2023-02-09T19:40:07.090Z,16.05
2023-02-09T19:42:34.080Z,17.60
2023-02-09T19:45:00.934Z,18.30
2023-02-09T19:47:28.174Z,18.65
2023-02-09T19:49:56.415Z,18.60
2023-02-09T19:52:24.638Z,19.27
2023-02-09T19:54:51.556Z,18.08
2023-02-09T19:57:19.529Z,17.92
2023-02-09T19:59:46.430Z,19.60
2023-02-09T20:02:16.935Z,17.15
2023-02-09T20:07:14.165Z,18.20
2023-02-09T20:09:41.555Z,16.77
2023-02-09T20:12:08.499Z,17.77
2023-02-09T20:14:35.401Z,17.52
2023-02-09T20:17:02.144Z,15.63
2023-02-09T20:19:29.318Z,18.00
2023-02-09T20:21:56.302Z,17.17
2023-02-09T20:24:24.030Z,17.38
2023-02-09T20:26:50.866Z,15.90
2023-02-09T20:29:19.179Z,15.00
2023-02-09T20:31:46.168Z,15.25
2023-02-09T20:34:14.421Z,16.92
2023-02-09T20:36:42.826Z,17.85
2023-02-09T20:39:13.395Z,19.67
2023-02-09T20:42:00.189Z,15.75
2023-02-09T20:44:45.486Z,17.15
2023-02-09T20:47:12.487Z,16.55
2023-02-09T20:49:40.577Z,14.98
2023-02-09T20:52:08.880Z,14.77
2023-02-09T20:54:36.403Z,15.82
2023-02-09T20:57:03.835Z,16.15
2023-02-09T20:59:31.159Z,16.65
2023-02-09T21:01:58.610Z,18.83
2023-02-09T21:04:30.140Z,17.95
2023-02-09T21:06:57.796Z,16.08
2023-02-09T21:09:29.103Z,17.10
2023-02-09T21:11:56.378Z,16.80
2023-02-09T21:14:32.548Z,16.48
2023-02-09T21:17:07.764Z,16.27
2023-02-09T21:19:35.031Z,16.20
2023-02-09T21:22:02.316Z,16.52
2023-02-09T21:24:29.144Z,18.08
2023-02-09T21:26:55.974Z,15.55
2023-02-09T21:29:23.038Z,16.05
2023-02-09T21:31:51.303Z,16.65
2023-02-09T21:34:18.313Z,16.83
2023-02-09T21:36:45.130Z,18.50
2023-02-09T21:39:12.524Z,18.48
2023-02-09T21:41:57.873Z,17.75
2023-02-09T21:44:24.686Z,19.02
2023-02-09T21:46:51.750Z,18.10
2023-02-09T21:49:18.594Z,18.13
2023-02-09T21:51:45.550Z,18.95
2023-02-09T21:54:14.615Z,18.45
2023-02-09T21:56:41.874Z,19.70
2023-02-09T21:59:09.540Z,17.83
2023-02-09T22:01:36.582Z,19.05
2023-02-09T22:04:03.947Z,16.73
2023-02-09T22:06:31.351Z,17.10
2023-02-09T22:09:00.440Z,18.45
2023-02-09T22:11:27.342Z,18.42
2023-02-09T22:13:54.334Z,20.08
2023-02-09T22:16:22.364Z,16.70
2023-02-09T22:18:49.594Z,15.60
2023-02-09T22:21:16.977Z,16.58
2023-02-09T22:23:43.777Z,16.23
2023-02-09T22:26:13.723Z,15.68
2023-02-09T22:28:41.592Z,15.55
2023-02-09T22:31:13.857Z,14.48
2023-02-09T22:33:40.832Z,16.08
2023-02-09T22:36:10.937Z,15.35
2023-02-09T22:38:38.046Z,15.07
2023-02-09T22:41:21.413Z,15.43
2023-02-09T22:43:54.341Z,16.63
2023-02-09T22:46:22.955Z,15.43
2023-02-09T22:48:54.887Z,14.95
2023-02-09T22:51:23.965Z,13.80
2023-02-09T22:53:50.908Z,14.52
2023-02-09T22:56:17.777Z,12.07
2023-02-09T22:58:45.162Z,12.77
2023-02-09T23:01:12.659Z,14.75
2023-02-09T23:03:40.249Z,13.05
2023-02-09T23:06:10.965Z,15.48
2023-02-09T23:08:37.763Z,13.52
2023-02-09T23:11:07.412Z,14.93
2023-02-09T23:13:35.615Z,13.45
2023-02-09T23:16:10.069Z,12.68
2023-02-09T23:18:37.467Z,13.35
2023-02-09T23:21:08.102Z,13.25
2023-02-09T23:23:35.607Z,12.13
2023-02-09T23:26:02.771Z,12.10
2023-02-09T23:28:29.642Z,12.38
2023-02-09T23:30:56.739Z,12.88
2023-02-09T23:33:23.572Z,10.63
2023-02-09T23:35:50.357Z,10.75
2023-02-09T23:38:18.513Z,10.77
2023-02-09T23:40:45.320Z,9.82
2023-02-09T23:43:12.222Z,9.77
2023-02-09T23:45:39.038Z,10.52
2023-02-09T23:48:06.141Z,9.32
2023-02-09T23:50:32.961Z,11.43
2023-02-09T23:52:59.772Z,8.70
2023-02-09T23:55:26.526Z,9.60
2023-02-09T23:57:53.333Z,9.38
